Henrique Viana

Olheiro - Corinthians
3 Dez 2028
Domingo
Processo

Personalidade

Adaptabilidade (13) Ambição (6) Controvérsia (1) Lealdade (5) Pressão (16) Profissionalismo (14) Espírito Esportivo (16) Temperamento (2)

Perfil

Estilo de Treinamento Democrático
Licença Continental C
Determinação 15
Gestão de Pessoas 12
Motivação 8
Disciplina 6
Satisfação no Trabalho
100%
Fadiga
0%
Função Olheiro
Salário 47.4K p/s
Contrato 14.03.2030

Desempenho

Comportamento Bom
Eficácia do Treinamento
52%
Desenvolvimento do Jogador
30%
Prevenção de Lesões
30%
Implementação Tática
40%

Eventos Recentes

Participou de uma reunião de recrutamento agora
Participou de uma reunião de recrutamento agora
Participou de uma reunião de recrutamento agora
Recomendou um alvo de transferência agora
Recomendou um alvo de transferência agora
Recomendou um alvo de transferência agora
Recomendou um alvo de transferência agora
Apresentou um dossiê à direção agora

Monitorando agora

94
Jogador Clube Status Habilidade Confiança Observado Última observação Último voto
Dango Ouattara Middlesbrough Ativo 156 / 164 40% 1 02.12.2028 -
Jayden Danns Bradford City Ativo 147 / 137 40% 1 02.12.2028 -
Júlio César Ceará Negociando 113 / 96 62% 1 01.12.2028 -
Kike Saverio Vitória Ativo 96 / 104 62% 1 17.07.2028 -
Neco Williams Wrexham Ativo 140 / 159 40% 1 11.07.2028 -
Moisés Caicedo Chelsea Ativo 183 / 171 40% 1 11.07.2028 -
Nuno Moreira Vasco da Gama Ativo 142 / 130 62% 1 10.07.2028 Aprovar
Antoine Griezmann Cruzeiro Ativo 137 / 152 62% 1 19.06.2028 Aprovar
Abdoul Ouattara Port Vale Ativo 126 / 149 40% 1 19.06.2028 -
Carlos Alcaraz Stoke City Ativo 151 / 147 40% 1 19.06.2028 -
Andrey Santa Cruz Ativo 109 / 109 62% 1 06.06.2028 Aprovar
Matheus Cunha Manchester United Ativo 155 / 172 40% 3 01.06.2028 -
Charles De Ketelaere Tottenham Ativo 169 / 159 40% 1 01.06.2028 -
Giacomo Raspadori Atalanta Ativo 142 / 158 40% 1 31.05.2028 -
Welington Southampton Ativo 142 / 130 40% 1 31.05.2028 -
Lima Fluminense Ativo 134 / 134 62% 1 02.12.2027 Aprovar
Martín Zubimendi Arsenal Ativo 170 / 160 40% 1 30.11.2027 -
Luciano Juba Bahia Ativo 143 / 137 40% 1 30.11.2027 -
Taty Castellanos West Ham United Ativo 158 / 134 40% 2 30.05.2027 -
Federico Chiesa Liverpool Ativo 154 / 154 40% 2 29.05.2027 -
Christian Pulisic AC Milan Ativo 171 / 162 40% 1 29.05.2027 -
Thiago Brentford Ativo 133 / 154 40% 3 27.05.2027 -
Emanuel Emegha Chelsea Ativo 129 / 146 40% 2 27.05.2027 -
Joe Gelhardt Hull City Ativo 136 / 139 40% 2 26.05.2027 -
Gabriel Martinelli Arsenal Ativo 150 / 161 40% 2 23.05.2027 -
Mohamed-Ali Cho Hull City Ativo 152 / 124 40% 3 22.05.2027 -
Manu Koné AS Roma Ativo 160 / 166 40% 3 19.05.2027 -
Ismaïla Sarr Crystal Palace Ativo 164 / 158 40% 3 16.05.2027 -
Nicolas Jackson Aston Villa Ativo 153 / 150 40% 5 15.05.2027 -
Isaiah Jones Luton Town Ativo 115 / 113 40% 1 14.05.2027 -
Hugo Ekitiké Liverpool Ativo 177 / 161 40% 3 13.05.2027 -
Kevin Fulham Ativo 135 / 154 40% 1 12.05.2027 -
Derensili Sanches Fernandes Huddersfield Town Ativo 140 / 121 40% 3 11.05.2027 -
Marcus Rashford Manchester United Ativo 150 / 164 40% 3 10.05.2027 -
Dominic Solanke Tottenham Ativo 161 / 153 40% 1 10.05.2027 -
Iliman N'Diaye Everton Ativo 145 / 146 40% 2 09.05.2027 -
Noni Madueke Arsenal Ativo 166 / 155 40% 1 09.05.2027 -
Xavi Simons Tottenham Ativo 172 / 153 40% 2 07.05.2027 -
Rodrigo Muniz Fulham Ativo 132 / 136 40% 1 28.04.2027 -
Brooke Norton-Cuffy Hull City Ativo 123 / 142 40% 2 13.04.2027 -
Jackson Muleka Konyaspor Ativo 130 / 129 40% 2 13.04.2027 -
Jason Knight Bristol City Ativo 127 / 129 40% 2 11.04.2027 -
Steven Bergwijn Al-Ittihad Ativo 156 / 156 40% 3 10.04.2027 -
Andrea Pinamonti Lazio Ativo 147 / 131 40% 1 02.04.2027 -
Ilyas Ansah Hull City Ativo 136 / 130 40% 1 01.04.2027 -
Oli McBurnie Hull City Ativo 155 / 122 40% 1 29.03.2027 -
Gianluca Prestianni Benfica Ativo 137 / 128 40% 2 27.03.2027 -
Che Adams Torino Ativo 131 / 149 40% 1 24.03.2027 -
Lorenzo Colombo Genoa Ativo 154 / 132 40% 1 21.03.2027 -
Enzo Barrenechea Benfica Ativo 150 / 150 40% 5 20.03.2027 -
Rafik Guitane Estoril Praia Ativo 117 / 126 40% 2 20.03.2027 -
Ricardo Horta Braga Ativo 150 / 159 40% 2 18.03.2027 -
Santi García Gil Vicente Ativo 134 / 135 40% 1 14.03.2027 -
Matheuzinho Vitória Ativo 135 / 124 51% 1 01.12.2026 -
Sorriso Famalicao Ativo 136 / 135 40% 4 27.11.2026 -
Zé Leite Moreirense Ativo 106 / 130 40% 1 26.11.2026 -
Henrique Araújo Casa Pia Ativo 114 / 119 40% 2 25.11.2026 -
Tamble Monteiro Rio Ave Ativo 115 / 126 40% 3 23.11.2026 -
Samuel Lino Flamengo Ativo 145 / 147 40% 1 21.11.2026 Mais informações
Jorge Aguirre Torreense Ativo 110 / 103 40% 1 19.11.2026 -
Korede Osundina Casa Pia Ativo 127 / 123 40% 1 19.11.2026 -
Pau Víctor Braga Ativo 123 / 131 40% 1 18.11.2026 -
William Gomes Porto Ativo 144 / 151 40% 1 16.11.2026 -
Alfonso Trezza Arouca Ativo 121 / 136 40% 2 13.11.2026 -
Isidro Pitta Bragantino Ativo 135 / 118 40% 1 13.11.2026 -
Jens Petter Hauge Bodo/Glimt Ativo 151 / 143 40% 2 07.11.2026 -
Yoane Wissa Newcastle United Ativo 126 / 150 40% 1 07.11.2026 -
Brais Méndez RC Lens Ativo 160 / 148 40% 1 05.11.2026 -
Samuel Dahl Benfica Ativo 135 / 134 40% 1 05.11.2026 -
Gustavo Silva Vitoria Guimaraes Ativo 118 / 113 40% 2 04.11.2026 -
Leon Goretzka Aston Villa Ativo 174 / 149 40% 1 01.11.2026 -
Vinícius Lopes Santa Clara Ativo 101 / 124 40% 2 28.10.2026 -
Negueba Mirassol Ativo 115 / 124 40% 1 26.10.2026 Mais informações
Wessam Abou Ali Columbus Crew Ativo 132 / 141 40% 2 13.10.2026 -
Fredrik Aursnes Benfica Ativo 142 / 162 40% 1 11.10.2026 -
Yanis Begraoui Estoril Praia Ativo 133 / 135 40% 1 08.10.2026 -
Figueiredo Alverca Ativo 136 / 133 40% 2 07.10.2026 -
Kévin Denkey FC Cincinnati Ativo 125 / 114 40% 1 07.10.2026 -
Martín Ojeda Orlando City Ativo 116 / 124 40% 1 05.10.2026 -
Tyrese Campbell Sheffield United Ativo 135 / 111 40% 1 05.10.2026 -
Gabriel Silva Braga Ativo 130 / 142 40% 1 29.09.2026 -
Ianis Stoica Estrela da Amadora Ativo 121 / 102 40% 1 26.09.2026 -
Talles Magno New York City Ativo 113 / 145 40% 1 24.09.2026 -
Roberto Fernández Braga Ativo 129 / 152 40% 1 24.09.2026 -
Alejandro Zendejas Club America Ativo 147 / 141 40% 1 20.09.2026 -
Marcel Ruiz Crystal Palace Ativo 129 / 147 40% 1 18.09.2026 -
Ramiro Ruiz Rodríguez Atlético Tucumán Ativo 123 / 122 40% 1 16.09.2026 -
Andreas Schjelderup Benfica Ativo 137 / 144 40% 2 11.09.2026 -
Arthur Flamengo Ativo 142 / 137 40% 1 09.09.2026 -
Cheikh Sabaly Vancouver Whitecaps Ativo 117 / 117 40% 1 07.09.2026 -
Heorhii Sudakov Benfica Ativo 123 / 138 40% 1 01.09.2026 -
Hwang In-Beom Porto Ativo 157 / 149 40% 1 20.08.2026 -
Diogo Dalot Manchester United Ativo 130 / 147 40% 1 19.08.2026 -
Zeno Debast Sporting CP Ativo 119 / 143 40% 1 01.08.2026 -